createdAt,value
2022-10-21T00:00:59.323Z,18.10
2022-10-21T00:06:01.628Z,18.10
2022-10-21T00:11:06.547Z,18.10
2022-10-21T00:16:17.955Z,18.00
2022-10-21T00:21:22.128Z,18.00
2022-10-21T00:26:24.263Z,18.10
2022-10-21T00:31:26.485Z,18.00
2022-10-21T00:36:28.592Z,17.90
2022-10-21T00:41:30.630Z,18.00
2022-10-21T00:51:38.249Z,17.80
2022-10-21T00:56:43.949Z,18.00
2022-10-21T01:01:46.111Z,17.80
2022-10-21T01:06:48.834Z,18.00
2022-10-21T01:11:50.791Z,18.30
2022-10-21T01:17:26.404Z,18.00
2022-10-21T01:23:02.648Z,17.90
2022-10-21T01:28:32.002Z,18.10
2022-10-21T01:33:45.295Z,17.90
2022-10-21T01:38:50.473Z,17.80
2022-10-21T01:49:11.124Z,17.90
2022-10-21T01:54:22.494Z,18.00
2022-10-21T01:59:28.748Z,17.90
2022-10-21T02:04:33.897Z,18.00
2022-10-21T02:09:36.033Z,18.00
2022-10-21T02:15:00.475Z,18.00
2022-10-21T02:20:07.566Z,18.00
2022-10-21T02:25:24.613Z,18.00
2022-10-21T02:30:32.349Z,18.20
2022-10-21T02:36:00.069Z,18.00
2022-10-21T02:41:06.232Z,17.90
2022-10-21T02:46:11.471Z,18.10
2022-10-21T02:51:14.860Z,18.20
2022-10-21T02:56:16.979Z,18.10
2022-10-21T03:01:19.277Z,18.10
2022-10-21T03:06:21.391Z,18.10
2022-10-21T03:11:23.639Z,18.20
2022-10-21T03:16:25.768Z,18.10
2022-10-21T03:21:27.905Z,18.10
2022-10-21T03:26:30.019Z,18.10
2022-10-21T03:31:32.375Z,18.10
2022-10-21T03:36:34.413Z,18.00
2022-10-21T03:41:36.439Z,18.10
2022-10-21T03:46:38.511Z,18.20
2022-10-21T03:51:40.591Z,18.10
2022-10-21T03:56:42.667Z,18.00
2022-10-21T04:01:44.782Z,18.00
2022-10-21T04:06:47.240Z,18.00
2022-10-21T04:11:49.342Z,17.90
2022-10-21T04:17:02.088Z,18.00
2022-10-21T04:22:04.558Z,17.90
2022-10-21T04:27:06.650Z,17.90
2022-10-21T04:32:08.714Z,18.00
2022-10-21T04:37:11.013Z,17.90
2022-10-21T04:42:13.070Z,17.90
2022-10-21T04:47:15.375Z,17.90
2022-10-21T04:52:17.503Z,17.90
2022-10-21T04:57:20.451Z,17.90
2022-10-21T05:02:25.349Z,17.90
2022-10-21T05:07:27.873Z,17.80
2022-10-21T05:12:29.975Z,17.90
2022-10-21T05:17:32.046Z,18.00
2022-10-21T05:22:34.167Z,18.00
2022-10-21T05:27:36.296Z,17.80
2022-10-21T05:32:39.518Z,17.90
2022-10-21T05:37:41.893Z,17.90
2022-10-21T05:47:46.613Z,17.80
2022-10-21T05:52:48.705Z,17.90
2022-10-21T06:02:53.826Z,17.80
2022-10-21T06:07:55.819Z,17.90
2022-10-21T06:12:58.008Z,18.00
2022-10-21T06:18:00.073Z,18.00
2022-10-21T06:23:02.154Z,18.00
2022-10-21T06:28:04.245Z,18.00
2022-10-21T06:33:06.299Z,18.10
2022-10-21T06:38:08.336Z,18.10
2022-10-21T06:43:10.691Z,18.10
2022-10-21T06:48:13.702Z,18.10
2022-10-21T06:53:15.716Z,18.10
2022-10-21T06:58:17.782Z,18.10
2022-10-21T07:03:19.812Z,18.10
2022-10-21T07:08:22.502Z,18.10
2022-10-21T07:13:36.559Z,18.30
2022-10-21T07:18:41.876Z,18.30
2022-10-21T07:23:46.810Z,18.10
2022-10-21T07:28:49.317Z,17.90
2022-10-21T07:33:51.530Z,18.20
2022-10-21T07:38:55.397Z,18.30
2022-10-21T07:43:58.172Z,18.20
2022-10-21T07:49:00.539Z,18.30
2022-10-21T07:54:03.007Z,18.30
2022-10-21T07:59:10.222Z,18.30
2022-10-21T08:04:18.525Z,18.30
2022-10-21T08:09:20.707Z,18.30
2022-10-21T08:14:22.914Z,18.50
2022-10-21T08:19:29.454Z,18.40
2022-10-21T08:24:31.779Z,18.50
2022-10-21T08:29:35.352Z,18.40
2022-10-21T08:34:40.082Z,18.40
2022-10-21T08:39:42.151Z,18.50
2022-10-21T08:44:53.626Z,18.50
2022-10-21T08:50:14.041Z,18.60
2022-10-21T08:55:21.512Z,18.60
2022-10-21T09:00:28.815Z,18.70
2022-10-21T09:05:57.019Z,18.70
2022-10-21T09:11:23.674Z,18.70
2022-10-21T09:16:50.668Z,18.80
2022-10-21T09:22:29.893Z,18.70
2022-10-21T09:27:32.269Z,18.80
2022-10-21T09:32:50.896Z,18.80
2022-10-21T09:38:21.354Z,18.80
2022-10-21T09:43:26.143Z,18.80
2022-10-21T09:54:21.957Z,18.90
2022-10-21T09:59:29.096Z,18.90
2022-10-21T10:04:35.295Z,19.00
2022-10-21T10:09:46.027Z,19.10
2022-10-21T10:14:48.581Z,19.10
2022-10-21T10:20:18.419Z,19.20
2022-10-21T10:25:24.286Z,19.20
2022-10-21T10:30:47.813Z,19.40
2022-10-21T10:35:55.824Z,19.40
2022-10-21T10:41:29.571Z,19.60
2022-10-21T10:46:36.565Z,19.70
2022-10-21T10:51:40.555Z,19.80
2022-10-21T10:57:20.085Z,20.00
2022-10-21T11:02:34.225Z,20.20
2022-10-21T11:07:51.537Z,20.30
2022-10-21T11:12:53.811Z,20.50
2022-10-21T11:18:17.104Z,20.60
2022-10-21T11:23:43.669Z,20.80
2022-10-21T11:29:12.947Z,21.00
2022-10-21T11:34:26.630Z,21.00
2022-10-21T11:39:47.768Z,21.30
2022-10-21T11:45:26.630Z,21.40
2022-10-21T11:50:53.611Z,21.60
2022-10-21T12:01:14.927Z,21.90
2022-10-21T12:06:26.205Z,22.00
2022-10-21T12:11:40.320Z,22.40
2022-10-21T12:16:43.602Z,22.70
2022-10-21T12:21:46.282Z,22.70
2022-10-21T12:26:59.327Z,22.90
2022-10-21T12:32:17.270Z,23.30
2022-10-21T12:37:48.432Z,23.00
2022-10-21T12:43:05.600Z,23.50
2022-10-21T12:48:28.560Z,23.80
2022-10-21T12:53:46.678Z,24.00
2022-10-21T12:58:59.167Z,24.20
2022-10-21T13:04:01.935Z,24.10
2022-10-21T13:09:35.969Z,24.40
2022-10-21T13:14:42.605Z,24.70
2022-10-21T13:19:44.712Z,24.70
2022-10-21T13:24:48.176Z,24.50
2022-10-21T13:29:51.518Z,24.70
2022-10-21T13:35:11.368Z,24.40
2022-10-21T13:40:18.184Z,24.30
2022-10-21T13:45:42.920Z,24.10
2022-10-21T13:50:47.773Z,24.00
2022-10-21T13:55:56.134Z,24.10
2022-10-21T14:01:07.823Z,24.10
2022-10-21T14:06:14.847Z,24.10
2022-10-21T14:11:32.217Z,24.00
2022-10-21T14:16:43.199Z,23.90
2022-10-21T14:21:49.293Z,23.80
2022-10-21T14:26:51.675Z,23.70
2022-10-21T14:31:54.311Z,23.70
2022-10-21T14:37:12.123Z,23.50
2022-10-21T14:42:23.640Z,23.30
2022-10-21T14:47:27.276Z,23.20
2022-10-21T14:52:35.100Z,22.90
2022-10-21T14:57:53.651Z,22.80
2022-10-21T15:02:56.904Z,22.60
2022-10-21T15:08:21.517Z,22.40
2022-10-21T15:13:25.440Z,22.30
2022-10-21T15:18:47.285Z,22.00
2022-10-21T15:23:53.456Z,21.90
2022-10-21T15:28:56.184Z,21.70
2022-10-21T15:33:58.688Z,21.60
2022-10-21T15:39:04.264Z,21.60
2022-10-21T15:44:33.209Z,21.00
2022-10-21T15:49:41.073Z,21.10
2022-10-21T15:54:43.595Z,21.10
2022-10-21T15:59:46.293Z,20.90
2022-10-21T16:04:51.527Z,20.90
2022-10-21T16:09:53.620Z,20.60
2022-10-21T16:14:55.742Z,20.60
2022-10-21T16:25:00.299Z,20.40
2022-10-21T16:30:13.919Z,20.30
2022-10-21T16:35:17.881Z,20.30
2022-10-21T16:40:34.982Z,20.20
2022-10-21T16:45:37.468Z,20.20
2022-10-21T16:50:45.514Z,20.00
2022-10-21T17:05:52.713Z,19.80
2022-10-21T17:10:54.800Z,19.70
2022-10-21T17:15:56.911Z,19.70
2022-10-21T17:20:59.090Z,19.60
2022-10-21T17:26:01.206Z,19.60
2022-10-21T17:31:03.321Z,19.60
2022-10-21T17:36:05.780Z,19.50
2022-10-21T17:41:09.435Z,19.50
2022-10-21T17:46:17.803Z,19.40
2022-10-21T17:51:21.728Z,19.40
2022-10-21T17:56:23.951Z,19.50
2022-10-21T18:01:26.187Z,19.30
2022-10-21T18:06:28.552Z,19.40
2022-10-21T18:11:31.124Z,19.40
2022-10-21T18:16:34.733Z,19.30
2022-10-21T18:21:36.922Z,19.20
2022-10-21T18:26:39.620Z,19.20
2022-10-21T18:31:41.845Z,19.20
2022-10-21T18:36:44.396Z,19.10
2022-10-21T18:41:46.524Z,19.10
2022-10-21T18:46:50.249Z,19.10
2022-10-21T18:51:54.634Z,19.10
2022-10-21T18:56:56.755Z,19.00
2022-10-21T19:01:59.102Z,19.10
2022-10-21T19:07:01.269Z,19.00
2022-10-21T19:12:03.717Z,19.00
2022-10-21T19:17:07.135Z,19.00
2022-10-21T19:22:09.281Z,19.00
2022-10-21T19:27:11.690Z,19.00
2022-10-21T19:32:15.427Z,19.00
2022-10-21T19:37:17.537Z,19.00
2022-10-21T19:47:22.083Z,19.00
2022-10-21T19:52:24.184Z,19.00
2022-10-21T19:57:26.353Z,19.00
2022-10-21T20:02:28.408Z,19.00
2022-10-21T20:07:37.236Z,19.10
2022-10-21T20:12:39.922Z,19.00
2022-10-21T20:17:42.392Z,18.90
2022-10-21T20:22:44.492Z,18.90
2022-10-21T20:27:46.612Z,18.90
2022-10-21T20:32:52.696Z,18.90
2022-10-21T20:37:54.862Z,18.80
2022-10-21T20:42:56.971Z,18.70
2022-10-21T20:47:59.087Z,18.60
2022-10-21T20:53:01.191Z,18.50
2022-10-21T20:58:03.541Z,18.50
2022-10-21T21:03:05.670Z,18.50
2022-10-21T21:08:08.127Z,18.40
2022-10-21T21:13:10.262Z,18.40
2022-10-21T21:18:14.068Z,18.30
2022-10-21T21:23:16.129Z,18.20
2022-10-21T21:28:18.246Z,18.30
2022-10-21T21:38:24.858Z,18.30
2022-10-21T21:43:28.559Z,18.20
2022-10-21T21:48:32.544Z,18.20
2022-10-21T21:53:34.600Z,18.20
2022-10-21T21:58:38.957Z,18.20
2022-10-21T22:03:41.517Z,18.10
2022-10-21T22:08:44.204Z,18.10
2022-10-21T22:13:46.597Z,18.10
2022-10-21T22:18:48.945Z,18.00
2022-10-21T22:23:51.773Z,18.00
2022-10-21T22:28:54.672Z,18.00
2022-10-21T22:33:57.145Z,18.00
2022-10-21T22:38:59.195Z,18.00
2022-10-21T22:44:01.320Z,18.00
2022-10-21T22:49:06.998Z,18.00
2022-10-21T22:54:19.306Z,18.00
2022-10-21T22:59:26.470Z,17.90
2022-10-21T23:04:28.650Z,17.90
2022-10-21T23:09:30.863Z,17.90
2022-10-21T23:14:33.068Z,17.90
2022-10-21T23:19:35.202Z,17.40
2022-10-21T23:24:37.630Z,17.90
2022-10-21T23:29:39.795Z,17.80
2022-10-21T23:39:44.307Z,17.80
2022-10-21T23:44:46.372Z,17.80
2022-10-21T23:49:48.451Z,17.90
2022-10-21T23:54:50.538Z,17.90
2022-10-21T23:59:52.838Z,18.00
